Ana Sayfa
METAR-TAF:

METAR-TAF

Havaalanları :

Erzurum Havalimanı

Erzurum, Türkiye

Enlem: 39-55N, Boylam: 041-16E, yükseklik: 1756 m

Güncel hava durumu gözlemi

Rapor saat 04:20 UTC de 35 dakika önce yapıldı.
Rüzgar doğudan 13 kt
Sıcaklık 16°C
Nem 68%
Basınç 1018 hPa
Görüş mesafesi 10 km veya daha fazla
1500 m altında bulut yok ve kümülonimbus yok

METAR: LTCE 150420Z 08013KT CAVOK 16/10 Q1018 NOSIG

Saat: 07:55 (04:55 UTC)

Tahmin

Rapor saat 22:40 UTC de 6 saat ve 15 dakika önce yapıldı.
Ayın 15'si saat 00 UTC'den ayın 15'si saat 24 UTC'ye kadar geçerli Tahmin
Rüzgar doğu/kuzeydoğudan 12 kt
Görüş mesafesi 10 km veya daha fazla
1500 m altında bulut yok ve kümülonimbus yok

TAF: LTCE 142240Z 1500/1524 07012KT CAVOK

4.000'den fazla havaalanı için hava durumu gözlemleri ve tahminleri (METAR ve TAF raporları).

Kullanılabilir istasyonlar harita üzerinde sarı ve kırmızı noktalarla gösterilir.

İstasyonun adını görmek için fareyi noktanın üzerinde gezdirin.

Sonrasında hava gözlem ve tahminlerini görmek için tıklayın.

Haritayı değiştirmek için: yaklaştırmak için siyah artı işaretli yeşil düğmeye ve uzaklaştırmak için de eksi işaretli düğmeye hızla tıklayın; bitişik haritalar için yeşil okları kullanın.


METAR-TAF: